Time;durP1;ratioP1;P1;durP2;ratioP2;P2;SDS_P1;SDS_P2;PMS_P1;PMS_P2;Temp;Humidity;BMP_temperature;BMP_pressure;BME280_temperature;BME280_humidity;BME280_pressure;Samples;Min_cycle;Max_cycle;Signal;HPM_P1;HPM_P2
2022/02/21 06:47:33;;;;;;;6.55;1.13;;;;;;;;;;10534833;27;20452;-80
2022/02/21 06:52:35;;;;;;;5.22;1.80;;;;;;;;;;10442873;28;20029;-80
2022/02/21 06:57:37;;;;;;;6.38;2.30;;;;;;;;;;10426234;28;20032;-80
2022/02/21 07:02:38;;;;;;;3.35;1.48;;;;;;;;;;10426151;28;20034;-80
2022/02/21 07:07:40;;;;;;;5.95;1.80;;;;;;;;;;10424756;28;20047;-80
2022/02/21 07:12:41;;;;;;;;;;;;;;;;;;10429715;28;20049;-80
2022/02/21 07:17:42;;;;;;;5.03;1.60;;;;;;;;;;10530806;27;19971;-80
2022/02/21 07:22:44;;;;;;;5.38;1.55;;;;;;;;;;10425478;28;20157;-81
2022/02/21 07:27:45;;;;;;;6.32;1.83;;;;;;;;;;10409122;28;20030;-80
2022/02/21 07:32:48;;;;;;;5.85;1.60;;;;;;;;;;10426663;28;20026;-80
2022/02/21 07:37:49;;;;;;;5.78;1.50;;;;;;;;;;10423658;28;20040;-81
2022/02/21 07:42:52;;;;;;;6.18;1.90;;;;;;;;;;10425896;28;20044;-81
2022/02/21 07:47:58;;;;;;;6.40;2.00;;;;;;;;;;10423044;28;20036;-80
2022/02/21 07:53:00;;;;;;;6.70;1.77;;;;;;;;;;10423418;28;20026;-80
2022/02/21 07:58:01;;;;;;;6.13;2.05;;;;;;;;;;10399824;28;20526;-81
2022/02/21 08:03:08;;;;;;;3.63;1.20;;;;;;;;;;10404648;22;20022;-79
2022/02/21 08:08:12;;;;;;;5.10;1.40;;;;;;;;;;10236266;28;20071;-80
2022/02/21 08:13:13;;;;;;;4.78;1.52;;;;;;;;;;10245384;28;20043;-79
2022/02/21 08:18:14;;;;;;;6.53;2.42;;;;;;;;;;10326718;23;20037;-80
2022/02/21 08:23:15;;;;;;;7.72;2.13;;;;;;;;;;10424850;28;20120;-80
2022/02/21 08:28:16;;;;;;;;;;;;;;;;;;10425138;28;20026;-80
2022/02/21 08:33:17;;;;;;;7.30;3.00;;;;;;;;;;10423564;28;19939;-79
2022/02/21 08:38:18;;;;;;;;;;;;;;;;;;10428543;28;20045;-80
2022/02/21 08:43:19;;;;;;;6.72;2.10;;;;;;;;;;10432339;28;19927;-80
2022/02/21 08:48:20;;;;;;;6.28;2.10;;;;;;;;;;10434248;28;20037;-80
2022/02/21 08:53:21;;;;;;;7.28;2.25;;;;;;;;;;10431392;28;20095;-79
2022/02/21 08:58:22;;;;;;;6.68;2.35;;;;;;;;;;10427631;28;20021;-81
2022/02/21 09:03:26;;;;;;;6.03;2.00;;;;;;;;;;10426105;28;20562;-79
2022/02/21 09:08:31;;;;;;;7.75;3.13;;;;;;;;;;10426895;28;20033;-80
2022/02/21 09:13:32;;;;;;;7.25;2.45;;;;;;;;;;10428530;28;20026;-80
2022/02/21 09:18:33;;;;;;;6.78;2.60;;;;;;;;;;10427042;28;20035;-79
2022/02/21 09:23:34;;;;;;;5.38;1.63;;;;;;;;;;10432836;28;20045;-80
2022/02/21 09:28:35;;;;;;;5.32;1.80;;;;;;;;;;10434074;28;20124;-80
2022/02/21 09:33:36;;;;;;;6.00;1.92;;;;;;;;;;10430950;28;20491;-80
2022/02/21 09:38:37;;;;;;;5.93;1.80;;;;;;;;;;10428468;28;20355;-80
2022/02/21 09:43:38;;;;;;;7.95;1.92;;;;;;;;;;10427956;28;20032;-82
2022/02/21 09:48:39;;;;;;;6.63;2.20;;;;;;;;;;10436168;28;20037;-80
2022/02/21 09:53:40;;;;;;;;;;;;;;;;;;10441002;28;20026;-81
2022/02/21 09:58:41;;;;;;;3.93;1.80;;;;;;;;;;10440303;28;19905;-81
2022/02/21 10:03:46;;;;;;;6.97;2.00;;;;;;;;;;10435556;28;20045;-81
2022/02/21 10:09:10;;;;;;;6.82;2.22;;;;;;;;;;10424464;28;20037;-80
2022/02/21 10:14:14;;;;;;;5.15;1.60;;;;;;;;;;10413348;28;20064;-80
2022/02/21 10:19:23;;;;;;;6.32;1.77;;;;;;;;;;10423125;28;20052;-80
2022/02/21 10:24:25;;;;;;;6.15;2.25;;;;;;;;;;10424095;28;20029;-79
2022/02/21 10:29:26;;;;;;;7.32;2.13;;;;;;;;;;10422178;28;20479;-80
2022/02/21 10:34:33;;;;;;;9.63;2.67;;;;;;;;;;10424093;28;20033;-80
2022/02/21 10:39:35;;;;;;;5.88;1.52;;;;;;;;;;10423602;28;20032;-80
2022/02/21 10:44:40;;;;;;;6.72;1.98;;;;;;;;;;10427053;28;20026;-79
2022/02/21 10:49:47;;;;;;;5.70;1.77;;;;;;;;;;10436684;28;20025;-80
2022/02/21 10:54:48;;;;;;;9.15;2.15;;;;;;;;;;10444612;28;20034;-79
2022/02/21 10:59:51;;;;;;;6.93;1.90;;;;;;;;;;10440205;28;20026;-78
2022/02/21 11:04:52;;;;;;;5.95;1.77;;;;;;;;;;10441821;28;20143;-79
2022/02/21 11:09:53;;;;;;;4.78;1.70;;;;;;;;;;10442156;28;20056;-79
2022/02/21 11:14:57;;;;;;;3.75;1.48;;;;;;;;;;10435259;28;20522;-78
2022/02/21 11:19:59;;;;;;;6.90;2.22;;;;;;;;;;10434591;28;20140;-79
2022/02/21 11:25:09;;;;;;;5.95;1.83;;;;;;;;;;10427046;28;20116;-78
2022/02/21 11:30:29;;;;;;;4.47;1.60;;;;;;;;;;10433386;28;20045;-79
2022/02/21 11:35:30;;;;;;;4.28;1.50;;;;;;;;;;10442355;28;20447;-79
2022/02/21 11:40:50;;;;;;;5.13;1.20;;;;;;;;;;10445676;28;20021;-79
2022/02/21 11:45:55;;;;;;;5.55;1.52;;;;;;;;;;10443883;28;20033;-80
2022/02/21 11:51:00;;;;;;;6.40;1.95;;;;;;;;;;10443110;28;20029;-80
2022/02/21 11:56:03;;;;;;;3.95;1.90;;;;;;;;;;10442236;28;20033;-80
2022/02/21 12:01:11;;;;;;;3.95;1.70;;;;;;;;;;10440538;28;20021;-79
2022/02/21 12:06:12;;;;;;;4.72;1.70;;;;;;;;;;10443942;28;20076;-80
2022/02/21 12:11:15;;;;;;;5.97;1.85;;;;;;;;;;10438437;28;20130;-80
2022/02/21 12:16:17;;;;;;;8.20;4.82;;;;;;;;;;10437145;28;20029;-78
2022/02/21 12:21:19;;;;;;;3.92;1.58;;;;;;;;;;10442752;28;20116;-78
2022/02/21 12:26:20;;;;;;;3.92;1.83;;;;;;;;;;10440798;28;20373;-78
2022/02/21 12:31:23;;;;;;;5.90;1.83;;;;;;;;;;10440019;28;20033;-79
2022/02/21 12:36:24;;;;;;;4.10;1.60;;;;;;;;;;10437852;28;20029;-78
2022/02/21 12:41:32;;;;;;;3.58;1.58;;;;;;;;;;10439398;28;20082;-80
2022/02/21 12:46:38;;;;;;;3.38;1.48;;;;;;;;;;10438048;28;20029;-79
2022/02/21 12:51:39;;;;;;;7.15;2.70;;;;;;;;;;10433556;28;20057;-79
2022/02/21 12:56:54;;;;;;;5.22;1.70;;;;;;;;;;10434979;28;20468;-79
2022/02/21 13:01:55;;;;;;;4.78;1.50;;;;;;;;;;10430426;28;20033;-79
2022/02/21 13:06:58;;;;;;;5.72;1.60;;;;;;;;;;10430544;28;20053;-78
2022/02/21 13:11:59;;;;;;;3.78;1.33;;;;;;;;;;10426419;28;20025;-79
2022/02/21 13:17:01;;;;;;;4.63;1.52;;;;;;;;;;10427915;28;20057;-79
2022/02/21 13:22:03;;;;;;;5.90;2.15;;;;;;;;;;10427402;28;20033;-79
2022/02/21 13:27:06;;;;;;;4.18;1.42;;;;;;;;;;10428591;28;20480;-79
2022/02/21 13:32:30;;;;;;;3.47;1.40;;;;;;;;;;10436151;28;20064;-79
2022/02/21 13:37:31;;;;;;;4.70;1.70;;;;;;;;;;10425848;28;20083;-79
2022/02/21 13:42:37;;;;;;;4.10;1.60;;;;;;;;;;10427539;28;20036;-79
2022/02/21 13:47:38;;;;;;;3.50;1.40;;;;;;;;;;10431262;28;20037;-78
2022/02/21 13:52:51;;;;;;;4.60;1.63;;;;;;;;;;10426600;28;20094;-79
2022/02/21 13:58:03;;;;;;;6.13;3.13;;;;;;;;;;10426853;28;20530;-78
2022/02/21 14:03:05;;;;;;;6.22;1.80;;;;;;;;;;10423585;28;20059;-79
2022/02/21 14:08:06;;;;;;;4.57;1.58;;;;;;;;;;10421085;28;20025;-78
2022/02/21 14:13:07;;;;;;;5.38;2.00;;;;;;;;;;10422916;28;20471;-78
2022/02/21 14:18:08;;;;;;;5.75;1.75;;;;;;;;;;10423020;28;20151;-77
2022/02/21 14:23:09;;;;;;;4.72;1.88;;;;;;;;;;10426101;28;20049;-78
2022/02/21 14:28:10;;;;;;;5.47;1.60;;;;;;;;;;10422629;28;20056;-78
2022/02/21 14:33:13;;;;;;;5.10;1.90;;;;;;;;;;10421147;28;20040;-78
2022/02/21 14:38:14;;;;;;;6.55;2.25;;;;;;;;;;10427903;28;20399;-78
2022/02/21 14:43:15;;;;;;;6.05;1.90;;;;;;;;;;10424208;28;20025;-79
2022/02/21 14:48:16;;;;;;;;;;;;;;;;;;10426468;28;20022;-79
2022/02/21 14:53:18;;;;;;;12.35;4.78;;;;;;;;;;10434296;28;20287;-79
2022/02/21 14:58:19;;;;;;;3.45;1.90;;;;;;;;;;10422934;28;20021;-79
2022/02/21 15:03:20;;;;;;;5.53;1.92;;;;;;;;;;10422633;28;20030;-79
2022/02/21 15:08:21;;;;;;;5.82;1.80;;;;;;;;;;10432055;28;20550;-79
2022/02/21 15:13:22;;;;;;;7.45;2.50;;;;;;;;;;10439224;28;20044;-78
2022/02/21 15:18:23;;;;;;;4.97;1.98;;;;;;;;;;10447556;28;20030;-79
2022/02/21 15:23:24;;;;;;;6.13;1.80;;;;;;;;;;10441274;28;20049;-79
2022/02/21 15:28:25;;;;;;;6.35;1.60;;;;;;;;;;10440076;28;20029;-78
2022/02/21 15:33:26;;;;;;;5.00;1.30;;;;;;;;;;10440697;28;20408;-80
2022/02/21 15:38:27;;;;;;;3.88;1.80;;;;;;;;;;10441799;28;20026;-79
2022/02/21 15:43:28;;;;;;;5.22;1.35;;;;;;;;;;10462503;28;20075;-80
2022/02/21 15:48:29;;;;;;;6.00;1.50;;;;;;;;;;10445975;28;20037;-79
2022/02/21 15:53:32;;;;;;;5.90;1.35;;;;;;;;;;10443501;28;20091;-80
2022/02/21 15:58:33;;;;;;;4.78;1.08;;;;;;;;;;10432787;28;20017;-79
2022/02/21 16:03:35;;;;;;;4.22;1.02;;;;;;;;;;10426160;28;20394;-79
2022/02/21 16:08:36;;;;;;;4.03;1.00;;;;;;;;;;10432179;28;20136;-80
2022/02/21 16:13:37;;;;;;;4.97;1.40;;;;;;;;;;10431231;28;20064;-78
2022/02/21 16:18:38;;;;;;;4.05;1.15;;;;;;;;;;10435095;28;20093;-77
2022/02/21 16:23:39;;;;;;;4.38;1.17;;;;;;;;;;10425001;28;20112;-79
2022/02/21 16:28:40;;;;;;;3.90;1.10;;;;;;;;;;10423835;28;20127;-79
2022/02/21 16:33:41;;;;;;;;;;;;;;;;;;10425349;28;20029;-79
2022/02/21 16:38:42;;;;;;;5.38;1.52;;;;;;;;;;10424965;28;20015;-79
2022/02/21 16:43:45;;;;;;;3.25;1.00;;;;;;;;;;10423862;28;20063;-79
2022/02/21 16:48:47;;;;;;;3.90;1.20;;;;;;;;;;10421693;28;20573;-78
2022/02/21 16:53:48;;;;;;;2.70;1.08;;;;;;;;;;10422635;28;20053;-78
2022/02/21 16:58:49;;;;;;;6.60;1.48;;;;;;;;;;10423327;28;20025;-79
2022/02/21 17:03:50;;;;;;;5.15;1.35;;;;;;;;;;10420490;28;20460;-77
2022/02/21 17:08:51;;;;;;;3.72;0.98;;;;;;;;;;10419923;28;20029;-77
2022/02/21 17:13:52;;;;;;;4.28;1.00;;;;;;;;;;10420491;28;20491;-77
2022/02/21 17:18:53;;;;;;;3.55;1.13;;;;;;;;;;10424635;28;20033;-81
2022/02/21 17:23:56;;;;;;;3.05;1.10;;;;;;;;;;10422853;28;20067;-84
2022/02/21 17:29:02;;;;;;;5.72;1.52;;;;;;;;;;10418326;28;20025;-84
2022/02/21 17:34:34;;;;;;;4.97;1.30;;;;;;;;;;10404775;28;20061;-84
2022/02/21 17:46:12;;;;;;;;;;;;;;;;;;;;;
2022/02/21 17:51:48;;;;;;;5.45;1.77;;;;;;;;;;10295309;28;20035;-85
2022/02/21 17:57:01;;;;;;;4.78;1.40;;;;;;;;;;10283934;28;20033;-85
2022/02/21 19:32:01;;;;;;;11.25;4.15;;;;;;;;;;10548348;28;19911;-84
2022/02/21 20:05:06;;;;;;;9.35;2.42;;;;;;;;;;10554884;28;20156;-83
2022/02/21 20:10:51;;;;;;;9.23;2.30;;;;;;;;;;10504727;28;20050;-83
